createdAt,value
2022-12-19T00:00:42.190Z,-6.36
2022-12-19T00:01:42.256Z,-6.36
2022-12-19T00:02:42.379Z,-6.36
2022-12-19T00:03:42.214Z,-6.35
2022-12-19T00:04:42.147Z,-6.34
2022-12-19T00:05:42.157Z,-6.34
2022-12-19T00:06:43.767Z,-6.35
2022-12-19T00:07:42.104Z,-6.36
2022-12-19T00:08:42.175Z,-6.37
2022-12-19T00:09:42.079Z,-6.37
2022-12-19T00:10:42.057Z,-6.37
2022-12-19T00:11:42.059Z,-6.37
2022-12-19T00:12:42.042Z,-6.37
2022-12-19T00:13:42.028Z,-6.36
2022-12-19T00:14:42.052Z,-6.35
2022-12-19T00:15:41.988Z,-6.35
2022-12-19T00:16:42.135Z,-6.35
2022-12-19T00:17:41.964Z,-6.35
2022-12-19T00:18:41.981Z,-6.35
2022-12-19T00:19:41.958Z,-6.36
2022-12-19T00:20:41.923Z,-6.37
2022-12-19T00:21:41.972Z,-6.38
2022-12-19T00:22:41.894Z,-6.36
2022-12-19T00:23:41.885Z,-6.34
2022-12-19T00:24:41.881Z,-6.34
2022-12-19T00:25:41.875Z,-6.35
2022-12-19T00:26:41.874Z,-6.33
2022-12-19T00:27:41.842Z,-6.29
2022-12-19T00:28:41.836Z,-6.26
2022-12-19T00:29:41.808Z,-6.24
2022-12-19T00:30:41.809Z,-6.20
2022-12-19T00:31:41.906Z,-6.16
2022-12-19T00:32:41.782Z,-6.14
2022-12-19T00:33:43.346Z,-6.13
2022-12-19T00:34:41.784Z,-6.13
2022-12-19T00:35:41.734Z,-6.11
2022-12-19T00:36:41.717Z,-6.11
2022-12-19T00:37:48.458Z,-6.09
2022-12-19T00:38:41.720Z,-6.07
2022-12-19T00:39:41.726Z,-6.07
2022-12-19T00:40:41.666Z,-6.07
2022-12-19T00:41:42.551Z,-6.08
2022-12-19T00:42:41.655Z,-6.08
2022-12-19T00:43:41.651Z,-6.07
2022-12-19T00:44:41.612Z,-6.05
2022-12-19T00:45:41.705Z,-6.02
2022-12-19T00:46:41.628Z,-5.99
2022-12-19T00:47:41.591Z,-5.98
2022-12-19T00:48:41.566Z,-5.96
2022-12-19T00:49:41.588Z,-5.94
2022-12-19T00:50:41.542Z,-5.93
2022-12-19T00:51:41.529Z,-5.93
2022-12-19T00:52:41.523Z,-5.92
2022-12-19T00:53:41.510Z,-5.90
2022-12-19T00:54:41.540Z,-5.90
2022-12-19T00:55:41.503Z,-5.91
2022-12-19T00:56:41.492Z,-5.92
2022-12-19T00:57:41.456Z,-5.92
2022-12-19T00:58:46.624Z,-5.92
2022-12-19T00:59:41.446Z,-5.93
2022-12-19T01:00:41.473Z,-5.93
2022-12-19T01:01:41.984Z,-5.93
2022-12-19T01:02:41.513Z,-5.93
2022-12-19T01:03:52.911Z,-5.94
2022-12-19T01:04:42.056Z,-5.93
2022-12-19T01:05:42.101Z,-5.90
2022-12-19T01:06:41.341Z,-5.88
2022-12-19T01:07:41.351Z,-5.86
2022-12-19T01:08:41.352Z,-5.85
2022-12-19T01:09:41.344Z,-5.85
2022-12-19T01:10:41.304Z,-5.87
2022-12-19T01:11:41.298Z,-5.89
2022-12-19T01:12:41.279Z,-5.88
2022-12-19T01:13:41.265Z,-5.87
2022-12-19T01:14:41.259Z,-5.86
2022-12-19T01:15:41.225Z,-5.87
2022-12-19T01:16:41.278Z,-5.87
2022-12-19T01:17:44.015Z,-5.86
2022-12-19T01:18:41.201Z,-5.85
2022-12-19T01:19:44.364Z,-5.84
2022-12-19T01:20:41.178Z,-5.82
2022-12-19T01:21:41.171Z,-5.80
2022-12-19T01:22:41.153Z,-5.79
2022-12-19T01:23:41.128Z,-5.80
2022-12-19T01:24:41.122Z,-5.80
2022-12-19T01:25:43.062Z,-5.81
2022-12-19T01:26:41.130Z,-5.82
2022-12-19T01:27:41.077Z,-5.82
2022-12-19T01:28:41.093Z,-5.82
2022-12-19T01:29:49.104Z,-5.83
2022-12-19T01:30:41.056Z,-5.83
2022-12-19T01:31:41.114Z,-5.82
2022-12-19T01:32:41.024Z,-5.82
2022-12-19T01:33:41.015Z,-5.83
2022-12-19T01:34:40.980Z,-5.83
2022-12-19T01:35:41.005Z,-5.82
2022-12-19T01:36:40.986Z,-5.82
2022-12-19T01:37:40.967Z,-5.82
2022-12-19T01:38:40.945Z,-5.79
2022-12-19T01:39:40.922Z,-5.75
2022-12-19T01:40:40.921Z,-5.73
2022-12-19T01:41:40.940Z,-5.71
2022-12-19T01:42:40.914Z,-5.70
2022-12-19T01:43:40.893Z,-5.69
2022-12-19T01:44:40.873Z,-5.67
2022-12-19T01:45:45.628Z,-5.67
2022-12-19T01:46:40.957Z,-5.65
2022-12-19T01:47:40.848Z,-5.64
2022-12-19T01:48:40.826Z,-5.64
2022-12-19T01:49:40.822Z,-5.63
2022-12-19T01:50:44.945Z,-5.61
2022-12-19T01:51:40.781Z,-5.61
2022-12-19T01:52:40.755Z,-5.61
2022-12-19T01:53:48.395Z,-5.61
2022-12-19T01:54:40.749Z,-5.59
2022-12-19T01:55:40.757Z,-5.55
2022-12-19T01:56:40.700Z,-5.52
2022-12-19T01:57:40.692Z,-5.50
2022-12-19T01:58:40.657Z,-5.48
2022-12-19T01:59:40.649Z,-5.47
2022-12-19T02:00:40.632Z,-5.46
2022-12-19T02:01:46.725Z,-5.47
2022-12-19T02:02:40.652Z,-5.48
2022-12-19T02:03:40.622Z,-5.49
2022-12-19T02:04:40.595Z,-5.49
2022-12-19T02:05:40.590Z,-5.47
2022-12-19T02:06:40.599Z,-5.43
2022-12-19T02:07:40.575Z,-5.39
2022-12-19T02:08:40.548Z,-5.38
2022-12-19T02:09:40.524Z,-5.39
2022-12-19T02:10:40.498Z,-5.41
2022-12-19T02:11:40.511Z,-5.43
2022-12-19T02:12:40.475Z,-5.44
2022-12-19T02:13:40.593Z,-5.44
2022-12-19T02:14:40.475Z,-5.42
2022-12-19T02:15:40.456Z,-5.39
2022-12-19T02:16:40.468Z,-5.37
2022-12-19T02:17:40.435Z,-5.35
2022-12-19T02:18:40.421Z,-5.35
2022-12-19T02:19:40.411Z,-5.34
2022-12-19T02:20:40.410Z,-5.33
2022-12-19T02:21:40.444Z,-5.31
2022-12-19T02:22:40.355Z,-5.30
2022-12-19T02:23:40.384Z,-5.29
2022-12-19T02:24:40.332Z,-5.27
2022-12-19T02:25:40.352Z,-5.26
2022-12-19T02:26:40.298Z,-5.27
2022-12-19T02:27:40.663Z,-5.28
2022-12-19T02:28:40.310Z,-5.28
2022-12-19T02:29:40.328Z,-5.30
2022-12-19T02:30:40.257Z,-5.31
2022-12-19T02:31:40.309Z,-5.31
2022-12-19T02:32:40.230Z,-5.31
2022-12-19T02:33:40.248Z,-5.31
2022-12-19T02:34:44.418Z,-5.32
2022-12-19T02:35:40.278Z,-5.32
2022-12-19T02:36:40.414Z,-5.30
2022-12-19T02:37:40.223Z,-5.25
2022-12-19T02:38:40.166Z,-5.18
2022-12-19T02:39:40.194Z,-5.14
2022-12-19T02:40:40.161Z,-5.11
2022-12-19T02:41:40.227Z,-5.08
2022-12-19T02:42:40.136Z,-5.07
2022-12-19T02:43:40.148Z,-5.08
2022-12-19T02:44:40.116Z,-5.11
2022-12-19T02:45:40.136Z,-5.13
2022-12-19T02:46:40.061Z,-5.13
2022-12-19T02:47:40.056Z,-5.13
2022-12-19T02:48:40.077Z,-5.15
2022-12-19T02:49:40.061Z,-5.16
2022-12-19T02:50:40.035Z,-5.17
2022-12-19T02:51:40.031Z,-5.17
2022-12-19T02:52:40.008Z,-5.17
2022-12-19T02:53:40.019Z,-5.17
2022-12-19T02:54:45.035Z,-5.18
2022-12-19T02:55:39.959Z,-5.19
2022-12-19T02:56:39.953Z,-5.20
2022-12-19T02:57:39.976Z,-5.20
2022-12-19T02:58:39.983Z,-5.21
2022-12-19T02:59:39.908Z,-5.20
2022-12-19T03:00:39.910Z,-5.20
2022-12-19T03:01:40.014Z,-5.20
2022-12-19T03:02:40.126Z,-5.22
2022-12-19T03:03:39.929Z,-5.23
2022-12-19T03:04:39.847Z,-5.24
2022-12-19T03:05:39.881Z,-5.23
2022-12-19T03:06:39.840Z,-5.22
2022-12-19T03:07:39.810Z,-5.22
2022-12-19T03:08:39.818Z,-5.22
2022-12-19T03:09:39.801Z,-5.22
2022-12-19T03:10:39.766Z,-5.21
2022-12-19T03:11:39.767Z,-5.19
2022-12-19T03:12:39.765Z,-5.17
2022-12-19T03:13:39.758Z,-5.18
2022-12-19T03:14:39.729Z,-5.20
2022-12-19T03:15:39.732Z,-5.21
2022-12-19T03:16:39.738Z,-5.21
2022-12-19T03:17:39.701Z,-5.19
2022-12-19T03:18:39.696Z,-5.16
2022-12-19T03:19:39.671Z,-5.15
2022-12-19T03:20:39.646Z,-5.15
2022-12-19T03:21:39.634Z,-5.16
2022-12-19T03:22:39.639Z,-5.16
2022-12-19T03:23:39.624Z,-5.16
2022-12-19T03:24:39.611Z,-5.16
2022-12-19T03:25:39.596Z,-5.15
2022-12-19T03:26:39.599Z,-5.14
2022-12-19T03:27:39.562Z,-5.12
2022-12-19T03:28:39.576Z,-5.10
2022-12-19T03:29:39.561Z,-5.10
2022-12-19T03:30:39.608Z,-5.12
2022-12-19T03:31:39.550Z,-5.13
2022-12-19T03:32:39.511Z,-5.12
2022-12-19T03:33:39.502Z,-5.10
2022-12-19T03:34:39.481Z,-5.09
2022-12-19T03:35:39.488Z,-5.08
2022-12-19T03:36:39.500Z,-5.08
2022-12-19T03:37:39.472Z,-5.08
2022-12-19T03:38:39.447Z,-5.08
2022-12-19T03:39:39.441Z,-5.08
2022-12-19T03:40:39.416Z,-5.07
2022-12-19T03:41:39.405Z,-5.06
2022-12-19T03:42:39.383Z,-5.06
2022-12-19T03:43:39.367Z,-5.07
2022-12-19T03:44:39.376Z,-5.08
2022-12-19T03:45:39.444Z,-5.10
2022-12-19T03:46:39.339Z,-5.11
2022-12-19T03:47:39.337Z,-5.10
2022-12-19T03:48:39.303Z,-5.10
2022-12-19T03:49:39.298Z,-5.10
2022-12-19T03:50:39.315Z,-5.09
2022-12-19T03:51:39.292Z,-5.08
2022-12-19T03:52:39.258Z,-5.06
2022-12-19T03:53:39.255Z,-5.05
2022-12-19T03:54:39.264Z,-5.04
2022-12-19T03:55:39.255Z,-5.03
2022-12-19T03:56:39.223Z,-5.03
2022-12-19T03:57:39.247Z,-5.03
2022-12-19T03:58:39.189Z,-5.03
2022-12-19T03:59:39.174Z,-5.02
2022-12-19T04:00:39.163Z,-5.01
2022-12-19T04:01:39.279Z,-5.01
2022-12-19T04:02:39.179Z,-5.01
2022-12-19T04:03:39.198Z,-5.02
2022-12-19T04:04:39.099Z,-5.03
2022-12-19T04:05:39.124Z,-5.04
2022-12-19T04:06:39.094Z,-5.04
2022-12-19T04:07:39.088Z,-5.03
2022-12-19T04:08:39.062Z,-5.02
2022-12-19T04:09:39.040Z,-5.02
2022-12-19T04:10:39.062Z,-5.02
2022-12-19T04:11:39.005Z,-5.02
2022-12-19T04:12:39.021Z,-5.03
2022-12-19T04:13:39.030Z,-5.04
2022-12-19T04:14:38.976Z,-5.05
2022-12-19T04:15:39.028Z,-5.05
2022-12-19T04:16:38.982Z,-5.05
2022-12-19T04:17:38.975Z,-5.04
2022-12-19T04:18:38.955Z,-5.06
2022-12-19T04:19:42.607Z,-5.07
2022-12-19T04:20:38.910Z,-5.07
2022-12-19T04:21:38.909Z,-5.06
2022-12-19T04:22:38.892Z,-5.05
2022-12-19T04:23:38.854Z,-5.06
2022-12-19T04:24:38.843Z,-5.07
2022-12-19T04:25:39.083Z,-5.07
2022-12-19T04:26:38.861Z,-5.07
2022-12-19T04:27:38.817Z,-5.07
2022-12-19T04:28:38.815Z,-5.07
2022-12-19T04:29:38.790Z,-5.07
2022-12-19T04:30:38.798Z,-5.07
2022-12-19T04:31:38.786Z,-5.09
2022-12-19T04:32:38.772Z,-5.11
2022-12-19T04:33:38.747Z,-5.11
2022-12-19T04:34:42.736Z,-5.12
2022-12-19T04:35:38.725Z,-5.13
2022-12-19T04:36:38.749Z,-5.15
2022-12-19T04:37:38.699Z,-5.17
2022-12-19T04:38:38.699Z,-5.19
2022-12-19T04:39:38.686Z,-5.20
2022-12-19T04:40:41.513Z,-5.20
2022-12-19T04:41:38.664Z,-5.19
2022-12-19T04:42:38.619Z,-5.18
2022-12-19T04:43:38.634Z,-5.18
2022-12-19T04:44:38.620Z,-5.17
2022-12-19T04:45:38.583Z,-5.16
2022-12-19T04:46:38.603Z,-5.16
2022-12-19T04:47:38.579Z,-5.16
2022-12-19T04:48:38.574Z,-5.16
2022-12-19T04:49:38.558Z,-5.17
2022-12-19T04:50:38.529Z,-5.19
2022-12-19T04:51:38.517Z,-5.20
2022-12-19T04:52:38.490Z,-5.20
2022-12-19T04:53:38.483Z,-5.19
2022-12-19T04:54:38.518Z,-5.19
2022-12-19T04:55:38.468Z,-5.20
2022-12-19T04:56:38.444Z,-5.22
2022-12-19T04:57:38.422Z,-5.24
2022-12-19T04:58:38.413Z,-5.25
2022-12-19T04:59:38.421Z,-5.25
2022-12-19T05:00:38.408Z,-5.26
2022-12-19T05:01:38.493Z,-5.27
2022-12-19T05:02:38.576Z,-5.28
2022-12-19T05:03:38.375Z,-5.28
2022-12-19T05:04:38.364Z,-5.29
2022-12-19T05:05:38.375Z,-5.28
2022-12-19T05:06:38.325Z,-5.27
2022-12-19T05:07:38.324Z,-5.28
2022-12-19T05:08:38.308Z,-5.28
2022-12-19T05:09:38.286Z,-5.27
2022-12-19T05:10:38.295Z,-5.27
2022-12-19T05:11:38.244Z,-5.28
2022-12-19T05:12:38.238Z,-5.29
2022-12-19T05:13:38.218Z,-5.29
2022-12-19T05:14:38.212Z,-5.30
2022-12-19T05:15:38.258Z,-5.30
2022-12-19T05:16:38.204Z,-5.31
2022-12-19T05:17:38.179Z,-5.33
2022-12-19T05:18:38.156Z,-5.34
2022-12-19T05:19:38.167Z,-5.36
2022-12-19T05:20:38.167Z,-5.36
2022-12-19T05:21:38.150Z,-5.35
2022-12-19T05:22:38.134Z,-5.35
2022-12-19T05:23:38.099Z,-5.36
2022-12-19T05:24:38.100Z,-5.37
2022-12-19T05:25:38.084Z,-5.38
2022-12-19T05:26:38.082Z,-5.39
2022-12-19T05:27:38.072Z,-5.39
2022-12-19T05:28:38.051Z,-5.40
2022-12-19T05:29:38.033Z,-5.40
2022-12-19T05:30:38.028Z,-5.39
2022-12-19T05:31:38.037Z,-5.37
2022-12-19T05:32:37.998Z,-5.37
2022-12-19T05:33:37.976Z,-5.36
2022-12-19T05:34:37.988Z,-5.35
2022-12-19T05:35:37.943Z,-5.34
2022-12-19T05:36:37.966Z,-5.32
2022-12-19T05:37:37.930Z,-5.30
2022-12-19T05:38:37.899Z,-5.28
2022-12-19T05:39:37.915Z,-5.27
2022-12-19T05:40:37.905Z,-5.25
2022-12-19T05:41:37.898Z,-5.24
2022-12-19T05:42:37.856Z,-5.23
2022-12-19T05:43:37.867Z,-5.21
2022-12-19T05:44:37.824Z,-5.19
2022-12-19T05:45:37.837Z,-5.17
2022-12-19T05:46:37.849Z,-5.15
2022-12-19T05:47:38.215Z,-5.14
2022-12-19T05:48:37.803Z,-5.13
2022-12-19T05:49:37.794Z,-5.11
2022-12-19T05:50:37.810Z,-5.10
2022-12-19T05:51:37.730Z,-5.09
2022-12-19T05:52:37.719Z,-5.08
2022-12-19T05:53:37.730Z,-5.07
2022-12-19T05:54:37.725Z,-5.07
2022-12-19T05:55:37.745Z,-5.06
2022-12-19T05:56:37.683Z,-5.05
2022-12-19T05:57:37.650Z,-5.03
2022-12-19T05:58:37.678Z,-5.02
2022-12-19T05:59:37.648Z,-5.01
2022-12-19T06:00:37.619Z,-5.00
2022-12-19T06:01:37.722Z,-4.99
2022-12-19T06:02:37.754Z,-4.98
2022-12-19T06:03:37.670Z,-4.98
2022-12-19T06:04:37.595Z,-4.97
2022-12-19T06:05:37.581Z,-4.96
2022-12-19T06:06:37.560Z,-4.95
2022-12-19T06:07:37.528Z,-4.94
2022-12-19T06:08:37.541Z,-4.93
2022-12-19T06:09:37.497Z,-4.92
2022-12-19T06:10:37.514Z,-4.91
2022-12-19T06:11:37.510Z,-4.90
2022-12-19T06:12:37.463Z,-4.90
2022-12-19T06:13:37.481Z,-4.89
2022-12-19T06:14:37.445Z,-4.88
2022-12-19T06:15:37.449Z,-4.87
2022-12-19T06:16:37.461Z,-4.86
2022-12-19T06:17:37.414Z,-4.85
2022-12-19T06:18:41.600Z,-4.84
2022-12-19T06:19:37.377Z,-4.82
2022-12-19T06:20:37.428Z,-4.81
2022-12-19T06:21:42.246Z,-4.79
2022-12-19T06:22:37.375Z,-4.78
2022-12-19T06:23:37.342Z,-4.76
2022-12-19T06:24:37.360Z,-4.76
2022-12-19T06:25:37.316Z,-4.74
2022-12-19T06:26:37.299Z,-4.73
2022-12-19T06:27:37.265Z,-4.71
2022-12-19T06:28:37.310Z,-4.70
2022-12-19T06:29:37.261Z,-4.69
2022-12-19T06:30:37.324Z,-4.68
2022-12-19T06:31:37.323Z,-4.67
2022-12-19T06:32:38.269Z,-4.66
2022-12-19T06:33:37.221Z,-4.65
2022-12-19T06:35:03.352Z,-4.63
2022-12-19T06:35:37.179Z,-4.62
2022-12-19T06:36:37.199Z,-4.61
2022-12-19T06:37:39.541Z,-4.59
2022-12-19T06:38:37.157Z,-4.58
2022-12-19T06:39:37.140Z,-4.57
2022-12-19T06:40:37.116Z,-4.55
2022-12-19T06:41:37.128Z,-4.54
2022-12-19T06:42:37.105Z,-4.52
2022-12-19T06:43:37.073Z,-4.51
2022-12-19T06:44:37.085Z,-4.49
2022-12-19T06:45:37.120Z,-4.49
2022-12-19T06:46:37.050Z,-4.48
2022-12-19T06:47:37.051Z,-4.47
2022-12-19T06:48:37.035Z,-4.46
2022-12-19T06:49:37.005Z,-4.45
2022-12-19T06:50:37.004Z,-4.43
2022-12-19T06:51:36.965Z,-4.41
2022-12-19T06:52:36.998Z,-4.40
2022-12-19T06:53:36.966Z,-4.39
2022-12-19T06:54:36.932Z,-4.39
2022-12-19T06:55:36.914Z,-4.37
2022-12-19T06:56:36.932Z,-4.35
2022-12-19T06:57:36.894Z,-4.34
2022-12-19T06:58:36.908Z,-4.33
2022-12-19T06:59:36.901Z,-4.33
2022-12-19T07:00:36.899Z,-4.32
2022-12-19T07:01:36.960Z,-4.30
2022-12-19T07:02:37.022Z,-4.28
2022-12-19T07:03:36.840Z,-4.27
2022-12-19T07:04:36.823Z,-4.26
2022-12-19T07:05:36.784Z,-4.25
2022-12-19T07:06:36.773Z,-4.24
2022-12-19T07:07:36.761Z,-4.23
2022-12-19T07:08:36.787Z,-4.21
2022-12-19T07:09:36.750Z,-4.19
2022-12-19T07:10:36.780Z,-4.18
2022-12-19T07:11:36.709Z,-4.16
2022-12-19T07:12:36.708Z,-4.14
2022-12-19T07:13:36.702Z,-4.13
2022-12-19T07:14:36.722Z,-4.12
2022-12-19T07:15:36.652Z,-4.11
2022-12-19T07:16:36.698Z,-4.10
2022-12-19T07:17:36.633Z,-4.09
2022-12-19T07:18:36.637Z,-4.08
2022-12-19T07:19:36.605Z,-4.07
2022-12-19T07:20:40.609Z,-4.06
2022-12-19T07:21:36.606Z,-4.05
2022-12-19T07:22:36.592Z,-4.04
2022-12-19T07:23:36.565Z,-4.03
2022-12-19T07:24:36.547Z,-4.01
2022-12-19T07:25:36.549Z,-4.00
2022-12-19T07:26:36.540Z,-3.98
2022-12-19T07:27:36.522Z,-3.97
2022-12-19T07:28:36.506Z,-3.96
2022-12-19T07:29:36.476Z,-3.95
2022-12-19T07:30:36.495Z,-3.93
2022-12-19T07:31:36.514Z,-3.92
2022-12-19T07:32:36.538Z,-3.91
2022-12-19T07:33:36.425Z,-3.90
2022-12-19T07:34:36.422Z,-3.89
2022-12-19T07:35:36.458Z,-3.88
2022-12-19T07:36:36.469Z,-3.87
2022-12-19T07:37:36.443Z,-3.86
2022-12-19T07:38:36.401Z,-3.85
2022-12-19T07:39:36.360Z,-3.83
2022-12-19T07:40:36.417Z,-3.82
2022-12-19T07:41:36.360Z,-3.81
2022-12-19T07:42:36.362Z,-3.80
2022-12-19T07:43:36.320Z,-3.78
2022-12-19T07:44:36.355Z,-3.77
2022-12-19T07:45:36.416Z,-3.76
2022-12-19T07:46:36.340Z,-3.75
2022-12-19T07:47:36.315Z,-3.73
2022-12-19T07:48:36.241Z,-3.71
2022-12-19T07:49:36.224Z,-3.69
2022-12-19T07:50:36.264Z,-3.68
2022-12-19T07:51:36.224Z,-3.66
2022-12-19T07:52:36.180Z,-3.65
2022-12-19T07:53:36.181Z,-3.63
2022-12-19T07:54:36.185Z,-3.61
2022-12-19T07:55:36.169Z,-3.60
2022-12-19T07:56:36.153Z,-3.58
2022-12-19T07:57:36.116Z,-3.56
2022-12-19T07:58:36.137Z,-3.55
2022-12-19T07:59:39.328Z,-3.53
2022-12-19T08:00:36.112Z,-3.51
2022-12-19T08:01:36.268Z,-3.49
2022-12-19T08:02:36.219Z,-3.48
2022-12-19T08:03:36.077Z,-3.46
2022-12-19T08:04:36.060Z,-3.44
2022-12-19T08:05:36.051Z,-3.42
2022-12-19T08:06:40.802Z,-3.40
2022-12-19T08:07:36.013Z,-3.38
2022-12-19T08:08:35.990Z,-3.37
2022-12-19T08:09:35.966Z,-3.35
2022-12-19T08:10:35.982Z,-3.33
2022-12-19T08:11:35.947Z,-3.32
2022-12-19T08:12:35.970Z,-3.30
2022-12-19T08:13:40.880Z,-3.29
2022-12-19T08:14:35.921Z,-3.26
2022-12-19T08:15:35.913Z,-3.25
2022-12-19T08:16:55.581Z,-3.23
2022-12-19T08:17:35.917Z,-3.21
2022-12-19T08:18:35.873Z,-3.19
2022-12-19T08:19:35.886Z,-3.17
2022-12-19T08:20:35.838Z,-3.15
2022-12-19T08:21:35.814Z,-3.14
2022-12-19T08:22:35.904Z,-3.12
2022-12-19T08:23:35.816Z,-3.11
2022-12-19T08:24:35.791Z,-3.10
2022-12-19T08:25:35.810Z,-3.09
2022-12-19T08:26:40.491Z,-3.07
2022-12-19T08:27:35.788Z,-3.05
2022-12-19T08:28:35.766Z,-3.03
2022-12-19T08:29:35.734Z,-3.02
2022-12-19T08:30:35.749Z,-3.00
2022-12-19T08:31:35.706Z,-2.99
2022-12-19T08:32:35.686Z,-2.97
2022-12-19T08:33:35.683Z,-2.96
2022-12-19T08:34:35.682Z,-2.94
2022-12-19T08:35:35.652Z,-2.92
2022-12-19T08:36:35.657Z,-2.90
2022-12-19T08:37:35.668Z,-2.87
2022-12-19T08:38:35.636Z,-2.85
2022-12-19T08:39:35.617Z,-2.83
2022-12-19T08:40:35.601Z,-2.81
2022-12-19T08:41:35.590Z,-2.79
2022-12-19T08:42:35.586Z,-2.76
2022-12-19T08:43:35.573Z,-2.73
2022-12-19T08:44:35.544Z,-2.70
2022-12-19T08:45:36.326Z,-2.67
2022-12-19T08:46:35.590Z,-2.65
2022-12-19T08:47:35.538Z,-2.63
2022-12-19T08:48:35.476Z,-2.61
2022-12-19T08:49:35.511Z,-2.60
2022-12-19T08:50:35.475Z,-2.58
2022-12-19T08:51:35.446Z,-2.57
2022-12-19T08:52:35.477Z,-2.55
2022-12-19T08:53:35.395Z,-2.53
2022-12-19T08:54:35.400Z,-2.51
2022-12-19T08:55:35.420Z,-2.50
2022-12-19T08:56:35.403Z,-2.48
2022-12-19T08:57:35.386Z,-2.46
2022-12-19T08:58:35.357Z,-2.45
2022-12-19T08:59:35.340Z,-2.43
2022-12-19T09:00:35.332Z,-2.42
2022-12-19T09:01:35.363Z,-2.41
2022-12-19T09:02:35.477Z,-2.39
2022-12-19T09:03:58.702Z,-2.38
2022-12-19T09:06:12.176Z,-2.36
2022-12-19T09:06:22.451Z,-2.35
2022-12-19T09:07:17.974Z,-2.33
2022-12-19T09:08:17.915Z,-2.32
2022-12-19T09:09:17.919Z,-2.30
2022-12-19T09:10:17.887Z,-2.29
2022-12-19T09:11:17.885Z,-2.27
2022-12-19T09:12:17.900Z,-2.26
2022-12-19T09:13:17.864Z,-2.24
2022-12-19T09:14:21.434Z,-2.22
2022-12-19T09:15:17.818Z,-2.20
2022-12-19T09:16:17.934Z,-2.19
2022-12-19T09:17:17.823Z,-2.17
2022-12-19T09:18:17.795Z,-2.15
2022-12-19T09:19:17.794Z,-2.14
2022-12-19T09:20:22.907Z,-2.12
2022-12-19T09:21:17.998Z,-2.10
2022-12-19T09:22:17.776Z,-2.08
2022-12-19T09:23:17.731Z,-2.06
2022-12-19T09:24:17.709Z,-2.04
2022-12-19T09:25:17.686Z,-2.02
2022-12-19T09:26:17.696Z,-2.00
2022-12-19T09:27:17.699Z,-1.97
2022-12-19T09:28:27.466Z,-1.95
2022-12-19T09:29:20.923Z,-1.92
2022-12-19T09:30:17.670Z,-1.90
2022-12-19T09:31:17.674Z,-1.87
2022-12-19T09:32:17.616Z,-1.85
2022-12-19T09:33:17.615Z,-1.82
2022-12-19T09:34:17.635Z,-1.80
2022-12-19T09:35:17.605Z,-1.77
2022-12-19T09:36:17.589Z,-1.74
2022-12-19T09:37:18.043Z,-1.72
2022-12-19T09:38:17.554Z,-1.70
2022-12-19T09:39:17.588Z,-1.69
2022-12-19T09:40:17.535Z,-1.67
2022-12-19T09:41:18.074Z,-1.65
2022-12-19T09:42:17.510Z,-1.63
2022-12-19T09:43:17.464Z,-1.60
2022-12-19T09:44:17.514Z,-1.58
2022-12-19T09:45:18.773Z,-1.56
2022-12-19T09:46:17.522Z,-1.53
2022-12-19T09:47:17.474Z,-1.50
2022-12-19T09:48:24.497Z,-1.48
2022-12-19T09:49:17.394Z,-1.46
2022-12-19T09:50:17.411Z,-1.44
2022-12-19T09:51:17.368Z,-1.42
2022-12-19T09:52:17.345Z,-1.39
2022-12-19T09:53:17.367Z,-1.37
2022-12-19T09:54:17.335Z,-1.36
2022-12-19T09:55:17.434Z,-1.34
2022-12-19T09:56:17.342Z,-1.32
2022-12-19T09:57:17.275Z,-1.30
2022-12-19T09:58:17.308Z,-1.28
2022-12-19T09:59:17.264Z,-1.26
2022-12-19T10:00:17.293Z,-1.24
2022-12-19T10:01:17.441Z,-1.22
2022-12-19T10:02:17.478Z,-1.20
2022-12-19T10:03:17.410Z,-1.18
2022-12-19T10:04:17.209Z,-1.16
2022-12-19T10:05:41.219Z,-1.14
2022-12-19T10:07:19.772Z,-1.11
2022-12-19T10:08:01.776Z,-1.10
2022-12-19T10:08:17.166Z,-1.09
2022-12-19T10:10:43.995Z,-1.07
2022-12-19T10:12:52.262Z,-1.06
2022-12-19T10:12:59.619Z,-1.03
2022-12-19T10:13:52.118Z,-1.01
2022-12-19T10:14:52.041Z,-0.99
2022-12-19T10:15:59.861Z,-0.97
2022-12-19T10:17:08.841Z,-0.95
2022-12-19T10:17:52.035Z,-0.92
2022-12-19T10:18:56.458Z,-0.88
2022-12-19T10:19:52.014Z,-0.85
2022-12-19T10:20:51.986Z,-0.83
2022-12-19T10:22:17.192Z,-0.83
2022-12-19T10:22:51.993Z,-0.82
2022-12-19T10:23:51.983Z,-0.80
2022-12-19T10:25:02.076Z,-0.80
2022-12-19T10:25:51.959Z,-0.79
2022-12-19T10:26:51.927Z,-0.77
2022-12-19T10:28:00.070Z,-0.74
2022-12-19T10:28:51.922Z,-0.71
2022-12-19T10:29:51.902Z,-0.70
2022-12-19T10:30:51.933Z,-0.68
2022-12-19T10:31:53.755Z,-0.67
2022-12-19T10:32:51.866Z,-0.65
2022-12-19T10:33:51.886Z,-0.62
2022-12-19T10:34:51.868Z,-0.59
2022-12-19T10:35:51.850Z,-0.57
2022-12-19T10:37:51.817Z,-0.55
2022-12-19T10:38:52.158Z,-0.55
2022-12-19T10:39:51.756Z,-0.54
2022-12-19T10:40:51.786Z,-0.52
2022-12-19T10:41:51.745Z,-0.51
2022-12-19T10:42:51.721Z,-0.49
2022-12-19T10:43:51.752Z,-0.48
2022-12-19T10:44:51.728Z,-0.48
2022-12-19T10:45:51.716Z,-0.48
2022-12-19T10:46:51.722Z,-0.47
2022-12-19T10:47:51.653Z,-0.45
2022-12-19T10:48:51.706Z,-0.44
2022-12-19T10:49:51.656Z,-0.42
2022-12-19T10:50:51.633Z,-0.40
2022-12-19T10:51:51.657Z,-0.37
2022-12-19T10:52:51.627Z,-0.34
2022-12-19T10:53:51.578Z,-0.31
2022-12-19T10:54:51.586Z,-0.28
2022-12-19T10:55:51.660Z,-0.25
2022-12-19T10:56:51.519Z,-0.24
2022-12-19T10:57:51.556Z,-0.22
2022-12-19T10:58:51.565Z,-0.20
2022-12-19T10:59:51.504Z,-0.18
2022-12-19T11:00:51.488Z,-0.16
2022-12-19T11:02:01.004Z,-0.15
2022-12-19T11:02:51.687Z,-0.13
2022-12-19T11:03:51.558Z,-0.12
2022-12-19T11:04:51.449Z,-0.10
2022-12-19T11:05:58.305Z,-0.08
2022-12-19T11:06:51.377Z,-0.08
2022-12-19T11:07:51.386Z,-0.07
2022-12-19T11:08:51.356Z,-0.07
2022-12-19T11:10:33.265Z,-0.07
2022-12-19T11:15:45.959Z,-0.06
2022-12-19T11:29:31.405Z,-0.05
2022-12-19T11:32:46.106Z,0.03
2022-12-19T11:33:15.712Z,0.04
2022-12-19T11:34:15.577Z,0.05
2022-12-19T11:35:15.568Z,0.05
2022-12-19T11:36:15.530Z,0.04
2022-12-19T11:37:15.565Z,0.02
2022-12-19T11:38:15.496Z,0.01
2022-12-19T11:39:15.489Z,-0.01
2022-12-19T11:40:15.487Z,-0.04
2022-12-19T11:41:15.487Z,-0.06
2022-12-19T11:42:15.475Z,-0.06
2022-12-19T11:44:15.420Z,-0.07
2022-12-19T11:45:15.432Z,-0.08
2022-12-19T11:46:21.362Z,-0.08
2022-12-19T11:47:15.391Z,-0.08
2022-12-19T11:48:15.392Z,-0.10
2022-12-19T11:49:15.392Z,-0.12
2022-12-19T11:50:15.399Z,-0.14
2022-12-19T11:51:15.350Z,-0.15
2022-12-19T11:52:29.758Z,-0.15
2022-12-19T11:53:19.160Z,-0.16
2022-12-19T11:54:15.325Z,-0.16
2022-12-19T11:55:15.314Z,-0.18
2022-12-19T11:56:16.536Z,-0.19
2022-12-19T11:57:15.246Z,-0.21
2022-12-19T11:58:15.286Z,-0.22
2022-12-19T11:59:15.239Z,-0.22
2022-12-19T12:00:15.251Z,-0.23
2022-12-19T12:01:15.227Z,-0.23
2022-12-19T12:02:15.232Z,-0.24
2022-12-19T12:03:15.243Z,-0.25
2022-12-19T12:04:15.359Z,-0.25
2022-12-19T12:05:15.241Z,-0.26
2022-12-19T12:06:15.190Z,-0.26
2022-12-19T12:07:45.583Z,-0.26
2022-12-19T12:15:37.081Z,-0.26
2022-12-19T12:32:00.730Z,-0.25
2022-12-19T12:38:14.127Z,-0.09
2022-12-19T12:38:27.604Z,-0.02
2022-12-19T12:39:03.609Z,0.02
2022-12-19T12:40:03.530Z,0.06
2022-12-19T12:41:03.607Z,0.09
2022-12-19T12:42:03.528Z,0.11
2022-12-19T12:43:03.574Z,0.12
2022-12-19T12:44:03.507Z,0.13
2022-12-19T12:45:03.521Z,0.14
2022-12-19T12:46:03.558Z,0.15
2022-12-19T12:47:03.536Z,0.15
2022-12-19T12:48:03.451Z,0.17
2022-12-19T12:49:03.454Z,0.18
2022-12-19T12:50:03.427Z,0.19
2022-12-19T12:51:03.435Z,0.19
2022-12-19T12:52:03.392Z,0.19
2022-12-19T12:53:03.390Z,0.20
2022-12-19T12:54:03.379Z,0.21
2022-12-19T12:55:03.365Z,0.22
2022-12-19T12:56:03.324Z,0.23
2022-12-19T12:57:03.311Z,0.24
2022-12-19T12:58:03.327Z,0.25
2022-12-19T12:59:03.313Z,0.24
2022-12-19T13:00:03.300Z,0.25
2022-12-19T13:01:03.309Z,0.25
2022-12-19T13:02:03.420Z,0.26
2022-12-19T13:03:03.410Z,0.26
2022-12-19T13:04:03.265Z,0.25
2022-12-19T13:05:03.246Z,0.25
2022-12-19T13:06:03.193Z,0.25
2022-12-19T13:07:03.194Z,0.24
2022-12-19T13:08:03.177Z,0.24
2022-12-19T13:09:03.182Z,0.23
2022-12-19T13:10:03.155Z,0.22
2022-12-19T13:11:03.164Z,0.22
2022-12-19T13:12:03.135Z,0.22
2022-12-19T13:13:03.100Z,0.21
2022-12-19T13:14:03.131Z,0.20
2022-12-19T13:15:03.129Z,0.19
2022-12-19T13:16:03.093Z,0.19
2022-12-19T13:17:03.094Z,0.19
2022-12-19T13:18:03.058Z,0.19
2022-12-19T13:19:03.016Z,0.19
2022-12-19T13:20:03.008Z,0.19
2022-12-19T13:21:03.053Z,0.18
2022-12-19T13:22:03.019Z,0.17
2022-12-19T13:23:02.969Z,0.16
2022-12-19T13:24:02.974Z,0.15
2022-12-19T13:25:02.973Z,0.15
2022-12-19T13:26:02.989Z,0.14
2022-12-19T13:27:02.920Z,0.14
2022-12-19T13:28:02.923Z,0.13
2022-12-19T13:29:02.901Z,0.12
2022-12-19T13:30:02.939Z,0.11
2022-12-19T13:31:21.210Z,0.11
2022-12-19T13:32:02.932Z,0.11
2022-12-19T13:33:02.874Z,0.10
2022-12-19T13:34:02.863Z,0.10
2022-12-19T13:35:26.795Z,0.10
2022-12-19T13:40:01.048Z,0.11
2022-12-19T13:40:12.509Z,0.12
2022-12-19T13:40:20.917Z,0.14
2022-12-19T13:41:19.740Z,0.15
2022-12-19T13:42:19.746Z,0.16
2022-12-19T13:43:19.704Z,0.18
2022-12-19T13:44:19.725Z,0.20
2022-12-19T13:45:19.699Z,0.21
2022-12-19T13:46:19.769Z,0.22
2022-12-19T13:47:23.790Z,0.23
2022-12-19T13:48:19.652Z,0.25